Decoded METAR Reports


Created by using MetarWeather

Station Name Location Elevation Time Temperature Dew Point RH Heat Index Wind Visibility Pressure Sky Condition Weather Remarks METAR
Alexandroupolis  40.85N 25.92E  3m  18/04/2014 22:20:00  14.0C  7.0C  63%  N/A  30 km/h, S (180 degrees)  > 10000m  1004.1 mb  Few clouds at 610m
Scattered clouds at 6100m
 
      LGAL 181920Z 18016KT 9999 FEW020 SCT200 14/07 Q1004 
Andravida (Civ/A  37.92N 21.27E  12m  18/04/2014 22:20:00  9.0C  6.0C  81%  N/A  9 km/h, SSE (150 degrees)  > 10000m  1009.1 mb  Few cumulus clouds at 610m
Scattered clouds at 760m
 
      LGAD 181920Z 15005KT 9999 FEW020TCU SCT025 09/06 Q1009 
Araxos (Civ/Afb)  38.17N 21.42E  15m  18/04/2014 21:50:00  11.0C  6.0C  71%  N/A  15 km/h, S (180 degrees)  > 10000m  1008.1 mb  Few clouds at 300m
Broken clouds at 760m
 
      LGRX 181850Z 18008KT 9999 FEW010 BKN025 11/06 Q1008 NOSIG RMK FEW080 FEW180 BLU 
Athens/Elef-Ven  37.93N 23.95E  94m  18/04/2014 22:20:00  11.0C  5.0C  66%  N/A  11 km/h, SW (230 degrees)  > 10000m  1007.1 mb  Few clouds at 910m
Scattered clouds at 2400m
 
      LGAV 181920Z 23006KT 9999 FEW030 SCT080 11/05 Q1007 NOSIG 
Chios Airport  38.32N 26.12E  4m  18/04/2014 20:50:00  14.0C  7.0C  63%  N/A  13 km/h, SSW (200 degrees)  > 10000m  1007.1 mb  Few cumulus clouds at 610m
 
      LGHI 181750Z 20007KT 9999 FEW020TCU 14/07 Q1007 
Elefsis (Hel-Afb  38.07N 23.55E  31m  18/04/2014 22:20:00  12.0C  5.0C  62%  N/A  6 km/h, SSW (210 degrees)  > 10000m  1007.1 mb  Scattered clouds at 610m
 
      LGEL 181920Z 21003KT 9999 SCT020 12/05 Q1007 
Ioannis Kapodist  39.60N 19.92E  2m  18/04/2014 22:20:00  10.0C  9.0C  94%  N/A  Calm  > 10000m  1007.1 mb  Few cumulus clouds at 550m
Scattered clouds at 1200m
Overcast at 2100m
 
Light Rain
 
   LGKR 181920Z 00000KT 9999 -RA FEW018TCU SCT040 OVC070 10/09 Q1007 NOSIG 
Iraklion (Civ/Af  35.32N 25.17E  39m  18/04/2014 22:20:00  14.0C  7.0C  63%  N/A  24 km/h, S (180 degrees)  > 10000m  1010.2 mb  Scattered clouds at 760m
 
      LGIR 181920Z 18013KT 9999 SCT025 14/07 Q1010 NOSIG 
Kalamata (Hel-Af  37.07N 22.02E  8m  18/04/2014 22:20:00  8.0C  7.0C  93%  N/A  6 km/h, Variable    1010.2 mb           LGKL 181920Z AUTO VRB03KT //// // ////// 08/07 Q1010 RE// 
Karpathos  35.42N 27.15E  20m  18/04/2014 20:50:00  16.0C  10.0C  68%  N/A  28 km/h, SW (220 degrees)  > 10000m  1010.2 mb  Few clouds at 610m
 
      LGKP 181750Z 22015KT 9999 FEW020 16/10 Q1010 
Kavala/Chrisoupo  40.92N 24.62E  5m  18/04/2014 20:50:00  10.0C  9.0C  94%  N/A  15 km/h, NW (320 degrees)  7000m  1004.1 mb  Scattered clouds at 300m
Scattered Cumulonimbus clouds at 550m
Broken clouds at 610m
 
Rain with Thunderstorm
 
   LGKV 181750Z 32008KT 7000 TSRA SCT010 SCT018CB BKN020 10/09 Q1004 
Kefallinia  38.12N 20.50E  18m  18/04/2014 22:20:00  13.0C  6.0C  62%  N/A  13 km/h, W (280 degrees)    1008.1 mb           LGKF 181920Z AUTO 28007KT //// // ////// 13/06 Q1008 RE// 
Kos Airport  36.80N 27.08E  130m  18/04/2014 22:20:00  14.0C  8.0C  67%  N/A  6 km/h, WSW (240 degrees)  > 10000m  1010.8 mb  Few clouds at 610m
 
      LGKO 181920Z 24003KT 9999 FEW020 14/08 Q1011 
Kozani (Civ/Army  40.28N 21.85E  630m  18/04/2014 22:20:00  6.0C  4.0C  87%  N/A  4 km/h, Variable    1004.1 mb     Light Rain
 
   LGKZ 181920Z AUTO VRB02KT //// -RA ////// 06/04 Q1004 RE// 
Limnos Island Ar  39.92N 25.23E  5m  18/04/2014 22:20:00  15.0C  8.0C  63%  N/A  26 km/h, S (190 degrees)    1005.1 mb           LGLM 181920Z AUTO 19014KT //// // ////// 15/08 Q1005 RE// 
Mikonos Island  37.43N 25.35E  120m  18/04/2014 20:50:00  14.0C  6.0C  59%  N/A  19 km/h, SW (230 degrees)  > 10000m  1008.1 mb  Few clouds at 370m
Few cumulus clouds at 550m
Scattered clouds at 610m
 
      LGMK 181750Z 23010KT 9999 FEW012 FEW018TCU SCT020 14/06 Q1008 
Mitilini  39.05N 26.60E  17m  18/04/2014 22:20:00  15.0C  7.0C  59%  N/A  24 km/h, 48 km/h gusts, S (190 degrees)  > 10000m  1008.1 mb  Few Cumulonimbus clouds at 490m
Scattered clouds at 610m
 
      LGMT 181920Z 19013G26KT 130V240 9999 FEW016CB SCT020 15/07 Q1008 
Paros  37.00N 25.07E  36m  18/04/2014 19:20:00  15.0C  8.0C  63%  N/A  22 km/h, SW (220 degrees)    1009.1 mb           LGPA 181620Z AUTO 22012KT //// // ////// 15/08 Q1009 RE// 
Preveza/Aktion  38.62N 20.77E  4m  18/04/2014 22:20:00  11.0C  7.0C  76%  N/A  6 km/h, Variable    1008.1 mb     Light Rain
 
   LGPZ 181920Z AUTO VRB03KT //// -RA ////// 11/07 Q1008 RE// 
Rhodes/Diagoras  36.40N 28.08E  5m  18/04/2014 22:20:00  14.0C  11.0C  82%  N/A  Calm  > 10000m  1010.8 mb  Few clouds at 550m
 
      LGRP 181920Z 00000KT 9999 FEW018 14/11 Q1011 NOSIG 
Samos Airport  37.68N 26.92E  6m  18/04/2014 17:50:00  16.0C  10.0C  68%  N/A  24 km/h, SSW (200 degrees)  > 10000m  1009.1 mb  Few cumulus clouds at 550m
Scattered clouds at 760m
 
      LGSM 181450Z 20013KT 9999 FEW018TCU SCT025 16/10 Q1009 
Santorini Island  36.40N 25.48E  40m  18/04/2014 22:20:00  14.0C  8.0C  67%  N/A  13 km/h, SSW (210 degrees)    1010.2 mb           LGSR 181920Z AUTO 21007KT 180V240 //// // ////// 14/08 Q1010 RE// 
Skiathos Island  39.18N 23.50E  15m  18/04/2014 21:50:00  11.0C  9.0C  87%  N/A  Calm  > 10000m  1004.1 mb  Few clouds at 760m
 
      LGSK 181850Z 00000KT 9999 FEW025 11/09 Q1004 
Souda/Khania (Af  35.47N 24.12E  150m  18/04/2014 22:20:00  12.0C  10.0C  88%  N/A  7 km/h, W (270 degrees)  > 10000m  1010.2 mb  Few cumulus clouds at 610m
Broken clouds at 910m
 
      LGSA 181920Z 27004KT 9999 FEW020TCU BKN030 12/10 Q1010 
Syros  37.42N 24.95E  72m  18/04/2014 22:20:00  14.0C  7.0C  63%  N/A  28 km/h, SW (220 degrees)    1009.1 mb           LGSO 181920Z AUTO 22015KT 170V230 //// // ////// 14/07 Q1009 RE// 
Thessaloniki/Mik  40.52N 22.97E  7m  18/04/2014 22:20:00  13.0C  7.0C  67%  N/A  13 km/h, W (260 degrees)  > 10000m  1004.1 mb  Scattered clouds at 910m
Broken clouds at 2400m
 
      LGTS 181920Z 26007KT 9999 SCT030 BKN080 13/07 Q1004 NOSIG 
Zakinthos Airpor  37.75N 20.87E  3m  18/04/2014 20:50:00  10.0C  8.0C  87%  N/A  Calm  > 10000m  1007.1 mb  Few cumulus clouds at 550m
Scattered clouds at 760m
Broken clouds at 2400m
 
      LGZA 181750Z 00000KT 9999 FEW018TCU SCT025 BKN080 10/08 Q1007